createdAt,value
2023-10-23T00:02:26.660Z,101115.13
2023-10-23T00:04:54.762Z,101116.00
2023-10-23T00:07:24.292Z,101112.78
2023-10-23T00:09:52.409Z,101117.31
2023-10-23T00:12:20.427Z,101119.09
2023-10-23T00:14:48.515Z,101109.63
2023-10-23T00:17:16.854Z,101111.53
2023-10-23T00:19:44.874Z,101108.16
2023-10-23T00:22:12.962Z,101109.41
2023-10-23T00:24:42.536Z,101109.41
2023-10-23T00:27:10.676Z,101108.00
2023-10-23T00:29:38.728Z,101111.56
2023-10-23T00:32:07.709Z,101116.94
2023-10-23T00:34:35.888Z,101112.78
2023-10-23T00:37:04.041Z,101116.34
2023-10-23T00:39:34.314Z,101113.78
2023-10-23T00:42:03.907Z,101125.28
2023-10-23T00:44:32.459Z,101127.94
2023-10-23T00:47:00.975Z,101134.97
2023-10-23T00:49:29.195Z,101134.13
2023-10-23T00:51:57.884Z,101131.53
2023-10-23T00:54:26.787Z,101124.03
2023-10-23T00:56:55.228Z,101119.06
2023-10-23T00:59:24.822Z,101127.31
2023-10-23T01:01:53.394Z,101129.72
2023-10-23T01:04:22.066Z,101128.16
2023-10-23T01:06:51.356Z,101133.56
2023-10-23T01:09:19.553Z,101129.06
2023-10-23T01:11:47.673Z,101128.53
2023-10-23T01:14:15.765Z,101126.63
2023-10-23T01:16:45.186Z,101130.22
2023-10-23T01:19:13.255Z,101137.25
2023-10-23T01:21:41.351Z,101129.47
2023-10-23T01:24:11.590Z,101133.09
2023-10-23T01:26:41.058Z,101127.94
2023-10-23T01:29:09.098Z,101127.28
2023-10-23T01:31:37.163Z,101133.59
2023-10-23T01:34:08.596Z,101135.31
2023-10-23T01:36:36.972Z,101148.38
2023-10-23T01:39:05.536Z,101142.28
2023-10-23T01:41:33.895Z,101147.81
2023-10-23T01:44:03.544Z,101144.50
2023-10-23T01:46:31.822Z,101147.25
2023-10-23T01:48:59.868Z,101151.59
2023-10-23T01:51:28.959Z,101158.72
2023-10-23T01:53:57.251Z,101163.72
2023-10-23T01:56:25.737Z,101162.06
2023-10-23T01:58:53.811Z,101157.50
2023-10-23T02:01:24.769Z,101158.28
2023-10-23T02:03:52.292Z,101156.50
2023-10-23T02:06:20.415Z,101154.59
2023-10-23T02:08:48.703Z,101151.84
2023-10-23T02:11:18.823Z,101153.16
2023-10-23T02:13:46.888Z,101154.03
2023-10-23T02:16:15.043Z,101154.78
2023-10-23T02:18:43.689Z,101156.34
2023-10-23T02:21:11.919Z,101158.75
2023-10-23T02:23:53.228Z,101155.91
2023-10-23T02:26:24.340Z,101162.47
2023-10-23T02:28:52.451Z,101167.75
2023-10-23T02:31:20.861Z,101158.00
2023-10-23T02:33:50.482Z,101163.06
2023-10-23T02:36:18.694Z,101163.94
2023-10-23T02:38:46.992Z,101158.47
2023-10-23T02:41:15.080Z,101163.41
2023-10-23T02:43:43.152Z,101167.66
2023-10-23T02:46:11.445Z,101165.72
2023-10-23T02:48:42.010Z,101159.41
2023-10-23T02:51:11.565Z,101166.09
2023-10-23T02:53:40.391Z,101163.34
2023-10-23T02:56:15.447Z,101175.44
2023-10-23T02:58:43.523Z,101172.75
2023-10-23T03:01:19.084Z,101174.50
2023-10-23T03:03:47.657Z,101170.06
2023-10-23T03:06:17.319Z,101170.06
2023-10-23T03:08:45.658Z,101176.91
2023-10-23T03:11:13.958Z,101184.53
2023-10-23T03:13:42.044Z,101182.78
2023-10-23T03:16:10.354Z,101179.22
2023-10-23T03:18:38.618Z,101185.06
2023-10-23T03:21:06.809Z,101179.00
2023-10-23T03:23:37.089Z,101187.59
2023-10-23T03:26:05.569Z,101183.22
2023-10-23T03:28:33.721Z,101185.72
2023-10-23T03:31:04.680Z,101177.94
2023-10-23T03:33:33.870Z,101178.78
2023-10-23T03:36:02.266Z,101181.22
2023-10-23T03:38:30.486Z,101174.25
2023-10-23T03:41:01.604Z,101176.78
2023-10-23T03:43:29.807Z,101184.56
2023-10-23T03:45:58.191Z,101186.25
2023-10-23T03:48:26.616Z,101190.56
2023-10-23T03:51:01.260Z,101189.63
2023-10-23T03:53:31.879Z,101186.00
2023-10-23T03:56:01.595Z,101184.19
2023-10-23T03:58:29.752Z,101183.94
2023-10-23T04:00:57.997Z,101189.00
2023-10-23T04:03:26.273Z,101183.63
2023-10-23T04:05:54.385Z,101186.16
2023-10-23T04:08:22.558Z,101189.47
2023-10-23T04:10:51.374Z,101189.38
2023-10-23T04:13:20.856Z,101191.06
2023-10-23T04:15:56.070Z,101192.00
2023-10-23T04:18:25.487Z,101193.78
2023-10-23T04:21:04.741Z,101195.31
2023-10-23T04:23:33.255Z,101200.16
2023-10-23T04:26:04.177Z,101186.34
2023-10-23T04:28:34.042Z,101181.91
2023-10-23T04:31:02.375Z,101185.53
2023-10-23T04:33:30.559Z,101188.06
2023-10-23T04:35:59.743Z,101186.03
2023-10-23T04:38:28.173Z,101185.19
2023-10-23T04:40:56.436Z,101190.34
2023-10-23T04:43:24.604Z,101191.22
2023-10-23T04:45:54.933Z,101196.28
2023-10-23T04:48:23.441Z,101196.13
2023-10-23T04:50:51.557Z,101194.44
2023-10-23T04:53:20.746Z,101199.84
2023-10-23T04:55:48.879Z,101189.94
2023-10-23T04:58:17.214Z,101190.78
2023-10-23T05:00:45.715Z,101189.03
2023-10-23T05:03:15.199Z,101188.09
2023-10-23T05:05:48.207Z,101196.66
2023-10-23T05:08:16.415Z,101193.34
2023-10-23T05:10:44.624Z,101201.38
2023-10-23T05:13:12.662Z,101197.06
2023-10-23T05:15:40.849Z,101196.97
2023-10-23T05:18:11.569Z,101196.03
2023-10-23T05:20:41.134Z,101196.91
2023-10-23T05:23:09.196Z,101202.91
2023-10-23T05:25:38.207Z,101201.88
2023-10-23T05:28:06.394Z,101193.94
2023-10-23T05:30:34.728Z,101198.94
2023-10-23T05:33:02.953Z,101195.56
2023-10-23T05:35:31.397Z,101191.25
2023-10-23T05:38:00.846Z,101190.38
2023-10-23T05:40:28.947Z,101181.69
2023-10-23T05:42:56.985Z,101193.78
2023-10-23T05:45:25.298Z,101197.25
2023-10-23T05:47:53.429Z,101196.25
2023-10-23T05:50:21.525Z,101191.09
2023-10-23T05:52:50.170Z,101197.06
2023-10-23T05:55:19.909Z,101199.63
2023-10-23T05:57:48.198Z,101198.69
2023-10-23T06:00:17.051Z,101200.47
2023-10-23T06:02:45.339Z,101212.00
2023-10-23T06:05:13.437Z,101205.91
2023-10-23T06:07:42.536Z,101210.19
2023-10-23T06:10:11.205Z,101203.19
2023-10-23T06:12:40.675Z,101201.41
2023-10-23T06:15:11.352Z,101207.50
2023-10-23T06:17:39.725Z,101201.31
2023-10-23T06:20:09.362Z,101205.81
2023-10-23T06:22:37.459Z,101207.66
2023-10-23T06:25:06.092Z,101213.16
2023-10-23T06:27:34.261Z,101213.69
2023-10-23T06:30:04.298Z,101209.38
2023-10-23T06:32:35.858Z,101210.91
2023-10-23T06:35:05.298Z,101210.19
2023-10-23T06:37:33.923Z,101215.53
2023-10-23T06:40:02.058Z,101209.63
2023-10-23T06:42:30.419Z,101213.00
2023-10-23T06:45:00.265Z,101208.75
2023-10-23T06:47:29.971Z,101210.63
2023-10-23T06:49:58.317Z,101215.88
2023-10-23T06:52:26.478Z,101214.34
2023-10-23T06:54:54.514Z,101218.72
2023-10-23T06:57:22.772Z,101223.44
2023-10-23T06:59:51.589Z,101218.09
2023-10-23T07:02:19.698Z,101216.44
2023-10-23T07:04:50.268Z,101214.13
2023-10-23T07:07:29.135Z,101219.44
2023-10-23T07:10:00.832Z,101225.63
2023-10-23T07:12:29.920Z,101225.88
2023-10-23T07:14:58.251Z,101235.44
2023-10-23T07:17:26.534Z,101236.28
2023-10-23T07:19:56.096Z,101237.19
2023-10-23T07:22:24.195Z,101225.78
2023-10-23T07:24:52.319Z,101222.06
2023-10-23T07:27:20.612Z,101220.53
2023-10-23T07:29:48.960Z,101224.78
2023-10-23T07:32:20.300Z,101225.53
2023-10-23T07:34:48.518Z,101216.66
2023-10-23T07:37:19.670Z,101220.91
2023-10-23T07:39:49.095Z,101222.44
2023-10-23T07:42:17.557Z,101226.69
2023-10-23T07:44:45.896Z,101228.38
2023-10-23T07:47:14.614Z,101232.72
2023-10-23T07:49:42.818Z,101224.06
2023-10-23T07:52:10.931Z,101227.22
2023-10-23T07:54:40.532Z,101229.09
2023-10-23T07:57:08.666Z,101228.00
2023-10-23T07:59:36.917Z,101224.50
2023-10-23T08:02:05.678Z,101230.53
2023-10-23T08:04:34.384Z,101226.94
2023-10-23T08:07:03.002Z,101231.09
2023-10-23T08:09:38.082Z,101223.00
2023-10-23T08:12:14.803Z,101239.28
2023-10-23T08:14:44.080Z,101235.25
2023-10-23T08:17:18.167Z,101228.00
2023-10-23T08:19:53.294Z,101229.69
2023-10-23T08:22:22.490Z,101231.31
2023-10-23T08:24:51.014Z,101228.28
2023-10-23T08:27:20.790Z,101228.13
2023-10-23T08:29:48.833Z,101220.06
2023-10-23T08:32:19.580Z,101225.50
2023-10-23T08:34:48.113Z,101226.16
2023-10-23T08:37:17.631Z,101213.91
2023-10-23T08:39:45.829Z,101214.59
2023-10-23T08:42:13.963Z,101218.78
2023-10-23T08:44:44.781Z,101213.81
2023-10-23T08:47:13.017Z,101217.88
2023-10-23T08:49:41.318Z,101216.25
2023-10-23T08:52:13.028Z,101222.19
2023-10-23T08:54:44.879Z,101213.03
2023-10-23T08:57:16.322Z,101214.47
2023-10-23T08:59:45.922Z,101215.84
2023-10-23T09:02:14.518Z,101209.31
2023-10-23T09:04:47.173Z,101208.22
2023-10-23T09:07:15.746Z,101219.31
2023-10-23T09:09:43.903Z,101216.59
2023-10-23T09:12:31.549Z,101214.56
2023-10-23T09:15:14.475Z,101207.25
2023-10-23T09:17:42.550Z,101212.06
2023-10-23T09:20:26.571Z,101212.66
2023-10-23T09:22:57.481Z,101210.16
2023-10-23T09:25:28.099Z,101209.81
2023-10-23T09:27:56.238Z,101211.53
2023-10-23T09:30:25.757Z,101205.72
2023-10-23T09:32:55.147Z,101213.06
2023-10-23T09:35:26.275Z,101213.00
2023-10-23T09:37:54.471Z,101216.09
2023-10-23T09:40:22.630Z,101211.81
2023-10-23T09:42:50.860Z,101204.09
2023-10-23T09:45:19.258Z,101207.50
2023-10-23T09:47:51.551Z,101207.69
2023-10-23T09:50:20.128Z,101203.56
2023-10-23T09:52:50.147Z,101207.97
2023-10-23T09:55:22.321Z,101218.97
2023-10-23T09:57:55.024Z,101216.13
2023-10-23T10:00:25.730Z,101206.22
2023-10-23T10:02:57.091Z,101202.44
2023-10-23T10:05:31.552Z,101206.47
2023-10-23T10:08:04.807Z,101200.28
2023-10-23T10:10:34.128Z,101204.50
2023-10-23T10:13:04.307Z,101202.88
2023-10-23T10:15:33.559Z,101198.09
2023-10-23T10:18:03.286Z,101192.56
2023-10-23T10:20:32.082Z,101195.41
2023-10-23T10:23:08.409Z,101200.28
2023-10-23T10:25:38.806Z,101198.59
2023-10-23T10:28:08.696Z,101196.69
2023-10-23T10:30:43.233Z,101193.13
2023-10-23T10:34:22.675Z,101191.84
2023-10-23T10:36:07.843Z,101187.63
2023-10-23T10:38:37.374Z,101188.56
2023-10-23T10:41:16.950Z,101192.22
2023-10-23T10:43:46.660Z,101188.22
2023-10-23T10:46:19.120Z,101176.28
2023-10-23T10:48:50.469Z,101166.31
2023-10-23T10:51:20.025Z,101152.41
2023-10-23T10:53:49.122Z,101153.00
2023-10-23T10:56:19.810Z,101151.00
2023-10-23T10:58:47.911Z,101145.28
2023-10-23T11:01:16.067Z,101133.44
2023-10-23T11:03:44.242Z,101139.81
2023-10-23T11:06:13.996Z,101135.03
2023-10-23T11:08:42.804Z,101129.78
2023-10-23T11:11:11.201Z,101131.44
2023-10-23T11:13:41.351Z,101130.63
2023-10-23T11:16:13.370Z,101115.63
2023-10-23T11:18:41.613Z,101122.00
2023-10-23T11:21:14.109Z,101117.53
2023-10-23T11:23:42.441Z,101108.41
2023-10-23T11:26:10.481Z,101114.94
2023-10-23T11:28:39.861Z,101106.63
2023-10-23T11:31:07.969Z,101097.00
2023-10-23T11:33:36.114Z,101094.47
2023-10-23T11:36:07.634Z,101091.47
2023-10-23T11:38:39.292Z,101085.94
2023-10-23T11:41:07.464Z,101083.41
2023-10-23T11:43:38.345Z,101078.53
2023-10-23T11:46:08.511Z,101074.53
2023-10-23T11:48:36.870Z,101077.66
2023-10-23T11:51:06.405Z,101063.22
2023-10-23T11:53:34.949Z,101057.56
2023-10-23T11:56:05.777Z,101052.88
2023-10-23T11:58:33.917Z,101050.22
2023-10-23T12:01:03.535Z,101055.66
2023-10-23T12:03:34.662Z,101050.72
2023-10-23T12:06:04.653Z,101045.41
2023-10-23T12:08:34.752Z,101034.84
2023-10-23T12:11:04.509Z,101034.72
2023-10-23T12:13:32.608Z,101035.53
2023-10-23T12:16:00.755Z,101024.22
2023-10-23T12:18:29.300Z,101022.06
2023-10-23T12:20:59.431Z,101014.38
2023-10-23T12:23:28.054Z,101018.56
2023-10-23T12:25:56.493Z,101010.13
2023-10-23T12:28:28.986Z,101009.97
2023-10-23T12:31:00.070Z,101010.13
2023-10-23T12:33:34.817Z,101005.34
2023-10-23T12:36:07.006Z,101008.81
2023-10-23T12:38:36.088Z,101004.22
2023-10-23T12:41:04.363Z,101000.13
2023-10-23T12:43:34.093Z,100987.94
2023-10-23T12:46:02.825Z,101005.63
2023-10-23T12:48:30.992Z,100997.09
2023-10-23T12:50:59.195Z,100990.56
2023-10-23T12:53:27.317Z,100992.88
2023-10-23T12:55:55.394Z,100992.41
2023-10-23T12:58:23.423Z,100987.84
2023-10-23T13:00:54.128Z,100978.41
2023-10-23T13:03:22.238Z,100974.00
2023-10-23T13:05:51.769Z,100970.41
2023-10-23T13:08:19.815Z,100972.56
2023-10-23T13:10:49.166Z,100972.13
2023-10-23T13:13:17.314Z,100967.16
2023-10-23T13:15:45.474Z,100958.97
2023-10-23T13:18:14.888Z,100957.78
2023-10-23T13:21:29.493Z,100952.25
2023-10-23T13:23:31.758Z,100950.47
2023-10-23T13:26:12.549Z,100946.25
2023-10-23T13:28:42.051Z,100930.00
2023-10-23T13:31:10.189Z,100928.22
2023-10-23T13:33:39.891Z,100929.16
2023-10-23T13:36:09.135Z,100920.41
2023-10-23T13:38:37.284Z,100918.19
2023-10-23T13:41:08.322Z,100909.69
2023-10-23T13:43:36.405Z,100911.38
2023-10-23T13:46:04.933Z,100900.91
2023-10-23T13:48:33.239Z,100908.38
2023-10-23T13:51:05.869Z,100899.84
2023-10-23T13:53:34.726Z,100897.19
2023-10-23T13:56:02.973Z,100899.00
2023-10-23T13:58:31.334Z,100886.50
2023-10-23T14:01:00.289Z,100892.88
2023-10-23T14:03:29.318Z,100893.47
2023-10-23T14:05:58.207Z,100893.34
2023-10-23T14:08:47.103Z,100889.50
2023-10-23T14:11:57.145Z,100890.00
2023-10-23T14:14:03.972Z,100893.88
2023-10-23T14:16:32.165Z,100890.47
2023-10-23T14:19:00.295Z,100881.13
2023-10-23T14:21:28.513Z,100871.25
2023-10-23T14:23:57.959Z,100884.84
2023-10-23T14:26:26.693Z,100878.97
2023-10-23T14:28:54.914Z,100872.34
2023-10-23T14:31:23.035Z,100869.59
2023-10-23T14:33:51.269Z,100868.19
2023-10-23T14:36:19.382Z,100856.88
2023-10-23T14:38:47.798Z,100855.19
2023-10-23T14:41:17.220Z,100852.19
2023-10-23T14:43:45.260Z,100849.31
2023-10-23T14:46:15.991Z,100838.94
2023-10-23T14:48:44.184Z,100838.56
2023-10-23T14:51:12.285Z,100833.53
2023-10-23T14:53:41.098Z,100828.50
2023-10-23T14:56:12.749Z,100829.19
2023-10-23T14:58:44.346Z,100819.84
2023-10-23T15:01:13.567Z,100826.47
2023-10-23T15:03:42.907Z,100816.59
2023-10-23T15:06:11.759Z,100800.50
2023-10-23T15:08:41.034Z,100804.13
2023-10-23T15:11:13.950Z,100793.22
2023-10-23T15:13:42.236Z,100787.56
2023-10-23T15:16:11.926Z,100782.88
2023-10-23T15:18:40.205Z,100771.13
2023-10-23T15:21:08.793Z,100764.41
2023-10-23T15:23:37.006Z,100760.47
2023-10-23T15:26:06.060Z,100752.66
2023-10-23T15:28:36.644Z,100750.50
2023-10-23T15:31:07.345Z,100754.34
2023-10-23T15:33:37.739Z,100750.75
2023-10-23T15:36:07.521Z,100745.56
2023-10-23T15:38:36.455Z,100742.69
2023-10-23T15:41:07.017Z,100741.25
2023-10-23T15:43:35.494Z,100729.34
2023-10-23T15:46:04.418Z,100727.91
2023-10-23T15:48:33.068Z,100721.06
2023-10-23T15:51:02.708Z,100718.31
2023-10-23T15:53:32.555Z,100726.22
2023-10-23T15:56:04.129Z,100718.56
2023-10-23T15:58:33.307Z,100724.66
2023-10-23T16:01:03.521Z,100714.84
2023-10-23T16:03:34.308Z,100713.63
2023-10-23T16:06:05.379Z,100715.69
2023-10-23T16:08:33.601Z,100712.44
2023-10-23T16:11:02.522Z,100711.81
2023-10-23T16:13:38.309Z,100711.34
2023-10-23T16:16:16.038Z,100709.53
2023-10-23T16:18:47.355Z,100699.69
2023-10-23T16:21:17.920Z,100705.81
2023-10-23T16:23:46.085Z,100703.19
2023-10-23T16:26:14.306Z,100703.28
2023-10-23T16:28:42.495Z,100702.91
2023-10-23T16:31:15.382Z,100713.00
2023-10-23T16:33:43.717Z,100716.81
2023-10-23T16:36:11.829Z,100709.13
2023-10-23T16:38:41.712Z,100719.31
2023-10-23T16:41:09.767Z,100717.28
2023-10-23T16:43:41.565Z,100710.44
2023-10-23T16:46:12.197Z,100700.47
2023-10-23T16:48:40.373Z,100708.16
2023-10-23T16:51:08.391Z,100702.25
2023-10-23T16:53:36.583Z,100700.56
2023-10-23T16:56:06.638Z,100697.78
2023-10-23T16:58:34.791Z,100693.69
2023-10-23T17:01:07.325Z,100689.84
2023-10-23T17:03:38.585Z,100681.94
2023-10-23T17:06:07.694Z,100676.66
2023-10-23T17:08:35.787Z,100673.53
2023-10-23T17:11:09.742Z,100669.94
2023-10-23T17:13:38.310Z,100659.50
2023-10-23T17:16:13.349Z,100659.75
2023-10-23T17:18:41.577Z,100648.47
2023-10-23T17:21:09.651Z,100643.31
2023-10-23T17:23:37.773Z,100644.25
2023-10-23T17:26:05.964Z,100628.69
2023-10-23T17:28:35.987Z,100632.25
2023-10-23T17:31:04.690Z,100621.00
2023-10-23T17:33:34.317Z,100623.16
2023-10-23T17:36:02.593Z,100611.84
2023-10-23T17:38:30.845Z,100625.28
2023-10-23T17:40:59.878Z,100614.63
2023-10-23T17:43:28.044Z,100623.25
2023-10-23T17:46:01.880Z,100619.06
2023-10-23T17:48:30.044Z,100609.66
2023-10-23T17:51:02.573Z,100605.22
2023-10-23T17:53:30.728Z,100599.13
2023-10-23T17:55:58.980Z,100600.31
2023-10-23T17:58:27.109Z,100598.63
2023-10-23T18:00:55.408Z,100602.56
2023-10-23T18:03:25.236Z,100597.53
2023-10-23T18:05:59.739Z,100587.00
2023-10-23T18:08:28.217Z,100576.44
2023-10-23T18:10:56.566Z,100572.56
2023-10-23T18:13:24.807Z,100571.13
2023-10-23T18:15:55.192Z,100562.38
2023-10-23T18:18:25.201Z,100568.72
2023-10-23T18:20:55.129Z,100579.13
2023-10-23T18:23:23.404Z,100570.53
2023-10-23T18:25:51.584Z,100573.34
2023-10-23T18:28:19.738Z,100570.72
2023-10-23T18:30:48.583Z,100578.16
2023-10-23T18:33:16.676Z,100573.47
2023-10-23T18:35:46.406Z,100576.00
2023-10-23T18:38:14.569Z,100580.44
2023-10-23T18:40:42.941Z,100579.13
2023-10-23T18:43:11.419Z,100571.47
2023-10-23T18:45:44.114Z,100573.25
2023-10-23T18:48:12.403Z,100576.50
2023-10-23T18:50:41.023Z,100573.47
2023-10-23T18:53:10.552Z,100569.06
2023-10-23T18:55:38.780Z,100565.31
2023-10-23T18:58:06.937Z,100564.47
2023-10-23T19:00:35.044Z,100560.25
2023-10-23T19:03:03.538Z,100569.75
2023-10-23T19:05:36.767Z,100555.81
2023-10-23T19:08:05.296Z,100558.69
2023-10-23T19:10:39.979Z,100555.22
2023-10-23T19:13:08.727Z,100558.69
2023-10-23T19:15:36.958Z,100553.66
2023-10-23T19:18:05.494Z,100557.00
2023-10-23T19:20:33.668Z,100551.84
2023-10-23T19:23:01.741Z,100555.56
2023-10-23T19:25:29.844Z,100559.25
2023-10-23T19:27:59.355Z,100556.72
2023-10-23T19:30:27.521Z,100547.88
2023-10-23T19:32:58.910Z,100541.88
2023-10-23T19:35:27.518Z,100543.06
2023-10-23T19:37:56.199Z,100533.97
2023-10-23T19:40:25.399Z,100522.22
2023-10-23T19:42:54.398Z,100520.53
2023-10-23T19:45:24.805Z,100516.66
2023-10-23T19:47:53.528Z,100506.31
2023-10-23T19:50:24.834Z,100507.59
2023-10-23T19:52:53.921Z,100505.84
2023-10-23T19:55:45.173Z,100497.19
2023-10-23T19:58:12.307Z,100497.81
2023-10-23T20:00:41.854Z,100496.75
2023-10-23T20:03:12.819Z,100492.75
2023-10-23T20:05:43.958Z,100479.50
2023-10-23T20:08:12.454Z,100473.28
2023-10-23T20:10:40.735Z,100467.41
2023-10-23T20:13:08.805Z,100461.19
2023-10-23T20:15:37.722Z,100456.88
2023-10-23T20:18:08.708Z,100460.22
2023-10-23T20:20:37.054Z,100456.16
2023-10-23T20:23:05.164Z,100461.78
2023-10-23T20:25:33.668Z,100453.19
2023-10-23T20:28:01.990Z,100450.66
2023-10-23T20:30:33.589Z,100449.06
2023-10-23T20:33:01.901Z,100444.16
2023-10-23T20:35:31.424Z,100438.06
2023-10-23T20:37:59.627Z,100426.69
2023-10-23T20:40:27.844Z,100414.97
2023-10-23T20:42:55.945Z,100408.38
2023-10-23T20:45:24.058Z,100402.28
2023-10-23T20:47:52.201Z,100395.34
2023-10-23T20:50:20.960Z,100397.25
2023-10-23T20:52:50.944Z,100387.69
2023-10-23T20:55:19.165Z,100398.09
2023-10-23T20:57:47.272Z,100392.00
2023-10-23T21:00:15.972Z,100382.53
2023-10-23T21:02:44.371Z,100378.94
2023-10-23T21:05:12.632Z,100362.44
2023-10-23T21:07:40.835Z,100360.50
2023-10-23T21:10:11.014Z,100358.22
2023-10-23T21:12:39.213Z,100351.91
2023-10-23T21:15:08.352Z,100346.03
2023-10-23T21:17:36.507Z,100345.06
2023-10-23T21:20:05.296Z,100332.88
2023-10-23T21:22:33.986Z,100328.78
2023-10-23T21:25:05.826Z,100328.19
2023-10-23T21:27:35.396Z,100317.69
2023-10-23T21:30:05.620Z,100303.66
2023-10-23T21:32:33.756Z,100302.47
2023-10-23T21:35:02.043Z,100292.63
2023-10-23T21:37:30.165Z,100290.75
2023-10-23T21:39:58.308Z,100279.28
2023-10-23T21:42:26.385Z,100276.97
2023-10-23T21:44:57.977Z,100271.00
2023-10-23T21:47:26.441Z,100276.97
2023-10-23T21:49:54.724Z,100274.47
2023-10-23T21:52:23.433Z,100257.50
2023-10-23T21:54:52.027Z,100259.06
2023-10-23T21:57:23.839Z,100245.41
2023-10-23T21:59:52.676Z,100246.38
2023-10-23T22:02:22.773Z,100239.44
2023-10-23T22:04:51.464Z,100237.41
2023-10-23T22:07:20.115Z,100230.47
2023-10-23T22:09:49.011Z,100229.63
2023-10-23T22:12:17.888Z,100218.53
2023-10-23T22:14:46.838Z,100214.09
2023-10-23T22:17:15.097Z,100206.69
2023-10-23T22:19:47.831Z,100213.47
2023-10-23T22:22:16.087Z,100207.25
2023-10-23T22:24:43.221Z,100192.34
2023-10-23T22:27:11.431Z,100192.53
2023-10-23T22:29:39.782Z,100205.84
2023-10-23T22:32:08.527Z,100194.47
2023-10-23T22:34:36.631Z,100193.41
2023-10-23T22:38:00.157Z,100187.31
2023-10-23T22:39:54.940Z,100182.06
2023-10-23T22:42:23.010Z,100189.09
2023-10-23T22:44:51.262Z,100179.66
2023-10-23T22:47:19.965Z,100172.25
2023-10-23T22:49:51.800Z,100172.38
2023-10-23T22:52:21.855Z,100167.34
2023-10-23T22:54:55.451Z,100169.72
2023-10-23T22:57:25.464Z,100175.69
2023-10-23T22:59:54.107Z,100173.06
2023-10-23T23:02:22.755Z,100172.13
2023-10-23T23:04:54.355Z,100161.00
2023-10-23T23:07:25.191Z,100150.84
2023-10-23T23:09:53.812Z,100146.53
2023-10-23T23:12:22.443Z,100137.81
2023-10-23T23:14:51.100Z,100127.28
2023-10-23T23:17:23.795Z,100150.94
2023-10-23T23:19:52.277Z,100159.34
2023-10-23T23:22:20.814Z,100153.69
2023-10-23T23:24:50.336Z,100150.25
2023-10-23T23:27:18.418Z,100148.44
2023-10-23T23:29:46.508Z,100143.91
2023-10-23T23:32:14.701Z,100142.22
2023-10-23T23:34:42.916Z,100141.28
2023-10-23T23:37:11.579Z,100143.78
2023-10-23T23:39:39.871Z,100131.47
2023-10-23T23:42:12.385Z,100122.38
2023-10-23T23:44:40.675Z,100138.16
2023-10-23T23:47:09.034Z,100138.88
2023-10-23T23:49:37.141Z,100136.25
2023-10-23T23:52:05.673Z,100126.44
2023-10-23T23:54:33.943Z,100128.94
2023-10-23T23:57:02.051Z,100121.03
2023-10-23T23:59:31.538Z,100125.84
